KPVW/PVW METAR and TAF weather

Enter ICAO airport designator
Station Type Date Time Source
KPVW METAR 2019/10/22 16:55 UTC NOAA

KPVW 221655Z AUTO 16010G15KT 10SM CLR 16/M05 A3024 RMK AO2 T01611048


Station Type Date Time Source
KPVW Decoded METAR 2019/10/22 16:55 UTC NOAA

Plainview, Hale County Airport, TX, United States (KPVW) 34-10-05N 101-43-02W
Oct 22, 2019 - 12:55 PM EDT / 2019.10.22 1655 UTC
Wind: from the SSE (160 degrees) at 12 MPH (10 KT) gusting to 17 MPH (15 KT):0
Visibility: 10 mile(s):0
Sky conditions: clear
Temperature: 61.0 F (16.1 C)
Dew Point: 23.4 F (-4.8 C)
Relative Humidity: 23%
Pressure (altimeter): 30.24 in. Hg (1024 hPa)
ob: KPVW 221655Z AUTO 16010G15KT 10SM CLR 16/M05 A3024 RMK AO2 T01611048
cycle: 17

Station Type Date Time Source
KPVW TAF 2019/10/22 12:22 UTC NOAA

TAF KPVW 221120Z 2212/2312 00000KT P6SM SKC
FM230600 20012KT P6SM SKC

Example: see airport list